sensor_id;sensor_type;location;lat;lon;timestamp;P1;durP1;ratioP1;P2;durP2;ratioP2
40847;SDS011;26570;50.962;5.340;2024-02-21T00:19:55;35.03;;;13.35;;
40847;SDS011;26570;50.962;5.340;2024-02-21T00:31:44;34.53;;;12.63;;
40847;SDS011;26570;50.962;5.340;2024-02-21T00:35:16;32.67;;;13.13;;
40847;SDS011;26570;50.962;5.340;2024-02-21T01:54:10;23.07;;;7.87;;
40847;SDS011;26570;50.962;5.340;2024-02-21T01:57:11;25.03;;;7.67;;
40847;SDS011;26570;50.962;5.340;2024-02-21T02:08:20;23.80;;;7.50;;
40847;SDS011;26570;50.962;5.340;2024-02-21T02:11:10;24.67;;;6.43;;
40847;SDS011;26570;50.962;5.340;2024-02-21T02:14:21;26.83;;;6.35;;
40847;SDS011;26570;50.962;5.340;2024-02-21T02:21:51;19.77;;;6.70;;
40847;SDS011;26570;50.962;5.340;2024-02-21T02:24:52;27.30;;;7.60;;
40847;SDS011;26570;50.962;5.340;2024-02-21T02:42:50;25.50;;;7.93;;
40847;SDS011;26570;50.962;5.340;2024-02-21T02:45:40;28.40;;;7.30;;
40847;SDS011;26570;50.962;5.340;2024-02-21T02:48:34;22.53;;;7.67;;
40847;SDS011;26570;50.962;5.340;2024-02-21T02:51:24;23.73;;;7.70;;
40847;SDS011;26570;50.962;5.340;2024-02-21T02:54:16;19.90;;;7.60;;
40847;SDS011;26570;50.962;5.340;2024-02-21T03:17:55;22.60;;;6.23;;
40847;SDS011;26570;50.962;5.340;2024-02-21T03:35:40;27.20;;;7.87;;
40847;SDS011;26570;50.962;5.340;2024-02-21T03:38:32;25.70;;;7.20;;
40847;SDS011;26570;50.962;5.340;2024-02-21T03:44:45;21.57;;;6.70;;
40847;SDS011;26570;50.962;5.340;2024-02-21T03:47:40;16.37;;;6.90;;
40847;SDS011;26570;50.962;5.340;2024-02-21T03:51:00;22.57;;;7.50;;
40847;SDS011;26570;50.962;5.340;2024-02-21T04:05:26;23.87;;;7.00;;
40847;SDS011;26570;50.962;5.340;2024-02-21T04:08:42;21.77;;;7.07;;
40847;SDS011;26570;50.962;5.340;2024-02-21T04:11:30;24.90;;;7.57;;
40847;SDS011;26570;50.962;5.340;2024-02-21T04:18:10;20.20;;;6.77;;
40847;SDS011;26570;50.962;5.340;2024-02-21T04:39:13;23.83;;;6.97;;
40847;SDS011;26570;50.962;5.340;2024-02-21T04:42:06;24.55;;;7.45;;
40847;SDS011;26570;50.962;5.340;2024-02-21T04:48:07;21.40;;;6.40;;
40847;SDS011;26570;50.962;5.340;2024-02-21T04:54:34;18.77;;;6.43;;
40847;SDS011;26570;50.962;5.340;2024-02-21T04:57:21;20.33;;;6.50;;
40847;SDS011;26570;50.962;5.340;2024-02-21T05:08:23;18.43;;;5.93;;
40847;SDS011;26570;50.962;5.340;2024-02-21T05:11:44;22.63;;;5.83;;
40847;SDS011;26570;50.962;5.340;2024-02-21T05:14:36;19.43;;;6.93;;
40847;SDS011;26570;50.962;5.340;2024-02-21T05:17:34;21.70;;;7.20;;
40847;SDS011;26570;50.962;5.340;2024-02-21T05:20:31;18.30;;;5.83;;
40847;SDS011;26570;50.962;5.340;2024-02-21T05:23:24;17.63;;;6.57;;
40847;SDS011;26570;50.962;5.340;2024-02-21T05:26:40;22.60;;;6.50;;
40847;SDS011;26570;50.962;5.340;2024-02-21T05:45:42;14.63;;;5.00;;
40847;SDS011;26570;50.962;5.340;2024-02-21T05:48:32;15.70;;;5.07;;
40847;SDS011;26570;50.962;5.340;2024-02-21T05:56:02;10.80;;;4.50;;
40847;SDS011;26570;50.962;5.340;2024-02-21T06:06:51;16.20;;;4.77;;
40847;SDS011;26570;50.962;5.340;2024-02-21T06:09:44;11.93;;;5.05;;
40847;SDS011;26570;50.962;5.340;2024-02-21T06:12:41;6.57;;;4.10;;
40847;SDS011;26570;50.962;5.340;2024-02-21T06:16:13;15.47;;;4.70;;
40847;SDS011;26570;50.962;5.340;2024-02-21T06:19:08;13.43;;;4.67;;
40847;SDS011;26570;50.962;5.340;2024-02-21T06:22:04;13.93;;;4.93;;
40847;SDS011;26570;50.962;5.340;2024-02-21T06:24:52;15.47;;;5.20;;
40847;SDS011;26570;50.962;5.340;2024-02-21T06:27:39;12.57;;;5.30;;
40847;SDS011;26570;50.962;5.340;2024-02-21T06:30:47;13.10;;;5.13;;
40847;SDS011;26570;50.962;5.340;2024-02-21T06:33:33;18.50;;;6.57;;
40847;SDS011;26570;50.962;5.340;2024-02-21T06:36:21;15.43;;;5.63;;
40847;SDS011;26570;50.962;5.340;2024-02-21T06:39:07;19.10;;;6.77;;
40847;SDS011;26570;50.962;5.340;2024-02-21T06:42:15;19.57;;;8.00;;
40847;SDS011;26570;50.962;5.340;2024-02-21T06:45:02;18.40;;;8.13;;
40847;SDS011;26570;50.962;5.340;2024-02-21T06:47:49;18.23;;;8.03;;
40847;SDS011;26570;50.962;5.340;2024-02-21T06:50:35;23.63;;;8.63;;
40847;SDS011;26570;50.962;5.340;2024-02-21T06:53:44;21.23;;;8.50;;
40847;SDS011;26570;50.962;5.340;2024-02-21T06:56:37;18.17;;;5.70;;
40847;SDS011;26570;50.962;5.340;2024-02-21T06:59:24;18.33;;;6.47;;
40847;SDS011;26570;50.962;5.340;2024-02-21T07:02:10;24.97;;;7.40;;
40847;SDS011;26570;50.962;5.340;2024-02-21T07:04:56;20.37;;;6.50;;
40847;SDS011;26570;50.962;5.340;2024-02-21T07:07:43;19.87;;;7.50;;
40847;SDS011;26570;50.962;5.340;2024-02-21T07:10:54;25.10;;;6.97;;
40847;SDS011;26570;50.962;5.340;2024-02-21T07:13:41;22.27;;;6.53;;
40847;SDS011;26570;50.962;5.340;2024-02-21T07:16:27;19.27;;;6.60;;
40847;SDS011;26570;50.962;5.340;2024-02-21T07:19:13;19.10;;;7.30;;
40847;SDS011;26570;50.962;5.340;2024-02-21T07:22:06;21.90;;;6.77;;
40847;SDS011;26570;50.962;5.340;2024-02-21T07:24:54;22.97;;;6.97;;
40847;SDS011;26570;50.962;5.340;2024-02-21T07:27:39;26.97;;;7.77;;
40847;SDS011;26570;50.962;5.340;2024-02-21T07:30:27;25.10;;;7.67;;
40847;SDS011;26570;50.962;5.340;2024-02-21T07:33:15;26.33;;;7.90;;
40847;SDS011;26570;50.962;5.340;2024-02-21T07:35:59;19.13;;;7.30;;
40847;SDS011;26570;50.962;5.340;2024-02-21T07:38:45;21.13;;;7.73;;
40847;SDS011;26570;50.962;5.340;2024-02-21T07:41:32;19.67;;;7.53;;
40847;SDS011;26570;50.962;5.340;2024-02-21T07:44:23;21.07;;;7.67;;
40847;SDS011;26570;50.962;5.340;2024-02-21T07:47:07;18.60;;;7.47;;
40847;SDS011;26570;50.962;5.340;2024-02-21T07:50:17;22.30;;;7.93;;
40847;SDS011;26570;50.962;5.340;2024-02-21T07:53:04;18.47;;;7.40;;
40847;SDS011;26570;50.962;5.340;2024-02-21T07:55:49;16.33;;;6.67;;
40847;SDS011;26570;50.962;5.340;2024-02-21T07:58:34;22.17;;;6.80;;
40847;SDS011;26570;50.962;5.340;2024-02-21T08:01:19;15.57;;;6.87;;
40847;SDS011;26570;50.962;5.340;2024-02-21T08:04:29;19.40;;;6.83;;
40847;SDS011;26570;50.962;5.340;2024-02-21T08:07:14;14.50;;;5.73;;
40847;SDS011;26570;50.962;5.340;2024-02-21T08:09:59;14.57;;;6.43;;
40847;SDS011;26570;50.962;5.340;2024-02-21T08:12:46;18.70;;;5.97;;
40847;SDS011;26570;50.962;5.340;2024-02-21T08:15:31;14.93;;;5.37;;
40847;SDS011;26570;50.962;5.340;2024-02-21T08:18:17;12.83;;;5.27;;
40847;SDS011;26570;50.962;5.340;2024-02-21T08:21:03;22.40;;;5.10;;
40847;SDS011;26570;50.962;5.340;2024-02-21T08:24:13;14.33;;;4.63;;
40847;SDS011;26570;50.962;5.340;2024-02-21T08:26:59;10.90;;;4.27;;
40847;SDS011;26570;50.962;5.340;2024-02-21T08:29:44;20.17;;;5.23;;
40847;SDS011;26570;50.962;5.340;2024-02-21T08:32:29;14.20;;;3.93;;
40847;SDS011;26570;50.962;5.340;2024-02-21T08:35:14;16.23;;;4.27;;
40847;SDS011;26570;50.962;5.340;2024-02-21T08:37:59;12.40;;;2.80;;
40847;SDS011;26570;50.962;5.340;2024-02-21T08:40:44;17.27;;;3.20;;
40847;SDS011;26570;50.962;5.340;2024-02-21T08:43:29;14.50;;;3.10;;
40847;SDS011;26570;50.962;5.340;2024-02-21T08:46:15;12.87;;;3.20;;
40847;SDS011;26570;50.962;5.340;2024-02-21T08:49:00;11.97;;;2.67;;
40847;SDS011;26570;50.962;5.340;2024-02-21T08:51:44;10.73;;;2.77;;
40847;SDS011;26570;50.962;5.340;2024-02-21T08:54:30;17.80;;;3.13;;
40847;SDS011;26570;50.962;5.340;2024-02-21T08:57:16;13.27;;;3.10;;
40847;SDS011;26570;50.962;5.340;2024-02-21T09:00:06;11.97;;;2.40;;
40847;SDS011;26570;50.962;5.340;2024-02-21T09:02:53;12.23;;;2.20;;
40847;SDS011;26570;50.962;5.340;2024-02-21T09:05:40;8.83;;;2.37;;
40847;SDS011;26570;50.962;5.340;2024-02-21T09:08:26;15.87;;;2.37;;
40847;SDS011;26570;50.962;5.340;2024-02-21T09:11:13;15.27;;;3.00;;
40847;SDS011;26570;50.962;5.340;2024-02-21T09:13:59;11.00;;;2.60;;
40847;SDS011;26570;50.962;5.340;2024-02-21T09:16:46;11.67;;;2.77;;
40847;SDS011;26570;50.962;5.340;2024-02-21T09:19:35;10.67;;;1.83;;
40847;SDS011;26570;50.962;5.340;2024-02-21T09:22:20;13.93;;;2.30;;
40847;SDS011;26570;50.962;5.340;2024-02-21T09:25:05;8.73;;;1.70;;
40847;SDS011;26570;50.962;5.340;2024-02-21T09:27:53;11.87;;;1.90;;
40847;SDS011;26570;50.962;5.340;2024-02-21T09:30:39;8.17;;;1.60;;
40847;SDS011;26570;50.962;5.340;2024-02-21T09:33:24;10.30;;;1.93;;
40847;SDS011;26570;50.962;5.340;2024-02-21T09:36:09;12.73;;;2.70;;
40847;SDS011;26570;50.962;5.340;2024-02-21T09:38:58;8.03;;;2.30;;
40847;SDS011;26570;50.962;5.340;2024-02-21T09:41:48;12.77;;;1.93;;
40847;SDS011;26570;50.962;5.340;2024-02-21T09:45:07;12.83;;;1.73;;
40847;SDS011;26570;50.962;5.340;2024-02-21T09:48:25;9.00;;;2.17;;
40847;SDS011;26570;50.962;5.340;2024-02-21T09:51:28;10.57;;;2.00;;
40847;SDS011;26570;50.962;5.340;2024-02-21T09:54:16;6.47;;;2.23;;
40847;SDS011;26570;50.962;5.340;2024-02-21T09:57:03;8.33;;;2.10;;
40847;SDS011;26570;50.962;5.340;2024-02-21T09:59:50;12.70;;;2.63;;
40847;SDS011;26570;50.962;5.340;2024-02-21T10:02:36;9.20;;;1.80;;
40847;SDS011;26570;50.962;5.340;2024-02-21T10:05:23;9.20;;;2.67;;
40847;SDS011;26570;50.962;5.340;2024-02-21T10:08:13;8.43;;;2.10;;
40847;SDS011;26570;50.962;5.340;2024-02-21T10:10:59;13.03;;;3.07;;
40847;SDS011;26570;50.962;5.340;2024-02-21T10:13:45;7.60;;;1.50;;
40847;SDS011;26570;50.962;5.340;2024-02-21T10:16:30;12.83;;;2.23;;
40847;SDS011;26570;50.962;5.340;2024-02-21T10:19:16;10.10;;;1.63;;
40847;SDS011;26570;50.962;5.340;2024-02-21T10:22:06;7.27;;;1.63;;
40847;SDS011;26570;50.962;5.340;2024-02-21T10:24:52;7.93;;;1.50;;
40847;SDS011;26570;50.962;5.340;2024-02-21T10:27:39;10.23;;;1.87;;
40847;SDS011;26570;50.962;5.340;2024-02-21T10:30:24;13.87;;;1.73;;
40847;SDS011;26570;50.962;5.340;2024-02-21T10:33:09;9.47;;;1.70;;
40847;SDS011;26570;50.962;5.340;2024-02-21T10:35:54;11.50;;;2.10;;
40847;SDS011;26570;50.962;5.340;2024-02-21T10:38:39;12.67;;;1.37;;
40847;SDS011;26570;50.962;5.340;2024-02-21T10:41:24;10.73;;;1.53;;
40847;SDS011;26570;50.962;5.340;2024-02-21T10:44:10;8.07;;;1.63;;
40847;SDS011;26570;50.962;5.340;2024-02-21T10:47:18;7.73;;;1.17;;
40847;SDS011;26570;50.962;5.340;2024-02-21T10:50:06;5.47;;;1.17;;
40847;SDS011;26570;50.962;5.340;2024-02-21T10:56:29;7.40;;;2.07;;
40847;SDS011;26570;50.962;5.340;2024-02-21T10:59:19;7.70;;;1.50;;
40847;SDS011;26570;50.962;5.340;2024-02-21T11:02:05;7.83;;;1.30;;
40847;SDS011;26570;50.962;5.340;2024-02-21T11:05:12;7.60;;;1.43;;
40847;SDS011;26570;50.962;5.340;2024-02-21T11:07:59;8.47;;;1.30;;
40847;SDS011;26570;50.962;5.340;2024-02-21T11:10:45;6.30;;;1.40;;
40847;SDS011;26570;50.962;5.340;2024-02-21T11:13:40;10.13;;;1.50;;
40847;SDS011;26570;50.962;5.340;2024-02-21T11:16:25;8.23;;;1.40;;
40847;SDS011;26570;50.962;5.340;2024-02-21T11:19:20;9.10;;;2.03;;
40847;SDS011;26570;50.962;5.340;2024-02-21T11:22:13;6.57;;;1.30;;
40847;SDS011;26570;50.962;5.340;2024-02-21T11:25:06;9.98;;;1.58;;
40847;SDS011;26570;50.962;5.340;2024-02-21T11:28:01;6.43;;;2.13;;
40847;SDS011;26570;50.962;5.340;2024-02-21T11:30:47;9.20;;;1.70;;
40847;SDS011;26570;50.962;5.340;2024-02-21T11:33:35;8.67;;;1.43;;
40847;SDS011;26570;50.962;5.340;2024-02-21T11:36:24;7.57;;;1.50;;
40847;SDS011;26570;50.962;5.340;2024-02-21T11:39:12;10.00;;;2.03;;
40847;SDS011;26570;50.962;5.340;2024-02-21T11:42:04;8.63;;;1.93;;
40847;SDS011;26570;50.962;5.340;2024-02-21T11:45:07;6.30;;;1.43;;
40847;SDS011;26570;50.962;5.340;2024-02-21T11:47:54;10.10;;;1.43;;
40847;SDS011;26570;50.962;5.340;2024-02-21T11:50:39;11.57;;;1.40;;
40847;SDS011;26570;50.962;5.340;2024-02-21T11:53:25;4.50;;;1.03;;
40847;SDS011;26570;50.962;5.340;2024-02-21T11:56:15;6.63;;;1.17;;
40847;SDS011;26570;50.962;5.340;2024-02-21T11:59:00;6.50;;;1.47;;
40847;SDS011;26570;50.962;5.340;2024-02-21T12:02:08;4.67;;;0.80;;
40847;SDS011;26570;50.962;5.340;2024-02-21T12:05:21;5.40;;;1.10;;
40847;SDS011;26570;50.962;5.340;2024-02-21T12:08:06;5.23;;;1.00;;
40847;SDS011;26570;50.962;5.340;2024-02-21T12:10:52;3.60;;;0.90;;
40847;SDS011;26570;50.962;5.340;2024-02-21T12:13:38;4.67;;;0.73;;
40847;SDS011;26570;50.962;5.340;2024-02-21T12:16:26;10.27;;;0.90;;
40847;SDS011;26570;50.962;5.340;2024-02-21T12:19:15;8.80;;;0.93;;
40847;SDS011;26570;50.962;5.340;2024-02-21T12:22:03;6.60;;;0.80;;
40847;SDS011;26570;50.962;5.340;2024-02-21T12:24:53;7.50;;;0.87;;
40847;SDS011;26570;50.962;5.340;2024-02-21T12:27:39;5.03;;;0.97;;
40847;SDS011;26570;50.962;5.340;2024-02-21T12:30:25;3.07;;;0.80;;
40847;SDS011;26570;50.962;5.340;2024-02-21T12:33:11;4.67;;;0.70;;
40847;SDS011;26570;50.962;5.340;2024-02-21T12:36:00;4.00;;;0.70;;
40847;SDS011;26570;50.962;5.340;2024-02-21T12:38:48;5.83;;;0.60;;
40847;SDS011;26570;50.962;5.340;2024-02-21T12:41:34;6.43;;;0.60;;
40847;SDS011;26570;50.962;5.340;2024-02-21T12:44:22;4.73;;;0.90;;
40847;SDS011;26570;50.962;5.340;2024-02-21T12:47:08;4.63;;;0.70;;
40847;SDS011;26570;50.962;5.340;2024-02-21T12:49:55;7.73;;;0.80;;
40847;SDS011;26570;50.962;5.340;2024-02-21T12:52:41;6.37;;;0.70;;
40847;SDS011;26570;50.962;5.340;2024-02-21T12:55:30;5.63;;;0.60;;
40847;SDS011;26570;50.962;5.340;2024-02-21T12:58:17;2.87;;;0.60;;
40847;SDS011;26570;50.962;5.340;2024-02-21T13:01:03;9.70;;;0.77;;
40847;SDS011;26570;50.962;5.340;2024-02-21T13:03:49;6.90;;;0.83;;
40847;SDS011;26570;50.962;5.340;2024-02-21T13:06:36;3.40;;;0.50;;
40847;SDS011;26570;50.962;5.340;2024-02-21T13:09:23;7.07;;;0.67;;
40847;SDS011;26570;50.962;5.340;2024-02-21T13:12:11;4.63;;;0.50;;
40847;SDS011;26570;50.962;5.340;2024-02-21T13:14:59;3.50;;;0.50;;
40847;SDS011;26570;50.962;5.340;2024-02-21T13:18:09;5.00;;;0.80;;
40847;SDS011;26570;50.962;5.340;2024-02-21T13:20:58;5.97;;;0.73;;
40847;SDS011;26570;50.962;5.340;2024-02-21T13:23:47;8.23;;;0.70;;
40847;SDS011;26570;50.962;5.340;2024-02-21T13:26:34;2.77;;;0.50;;
40847;SDS011;26570;50.962;5.340;2024-02-21T13:29:20;3.97;;;0.60;;
40847;SDS011;26570;50.962;5.340;2024-02-21T13:32:06;5.20;;;0.60;;
40847;SDS011;26570;50.962;5.340;2024-02-21T13:34:52;5.37;;;0.57;;
40847;SDS011;26570;50.962;5.340;2024-02-21T13:37:40;3.83;;;0.50;;
40847;SDS011;26570;50.962;5.340;2024-02-21T13:40:49;2.87;;;0.50;;
40847;SDS011;26570;50.962;5.340;2024-02-21T13:43:36;4.80;;;0.60;;
40847;SDS011;26570;50.962;5.340;2024-02-21T13:46:27;6.13;;;0.57;;
40847;SDS011;26570;50.962;5.340;2024-02-21T13:49:15;2.00;;;0.50;;
40847;SDS011;26570;50.962;5.340;2024-02-21T13:52:01;1.53;;;0.50;;
40847;SDS011;26570;50.962;5.340;2024-02-21T13:54:47;2.50;;;0.60;;
40847;SDS011;26570;50.962;5.340;2024-02-21T13:57:37;4.73;;;0.50;;
40847;SDS011;26570;50.962;5.340;2024-02-21T14:00:23;4.90;;;0.57;;
40847;SDS011;26570;50.962;5.340;2024-02-21T14:03:09;4.83;;;0.47;;
40847;SDS011;26570;50.962;5.340;2024-02-21T14:05:55;6.97;;;0.50;;
40847;SDS011;26570;50.962;5.340;2024-02-21T14:08:41;4.80;;;0.60;;
40847;SDS011;26570;50.962;5.340;2024-02-21T14:11:27;4.57;;;0.80;;
40847;SDS011;26570;50.962;5.340;2024-02-21T14:14:15;2.63;;;0.80;;
40847;SDS011;26570;50.962;5.340;2024-02-21T14:17:01;4.87;;;0.70;;
40847;SDS011;26570;50.962;5.340;2024-02-21T14:19:48;3.47;;;0.60;;
40847;SDS011;26570;50.962;5.340;2024-02-21T14:22:34;3.67;;;0.53;;
40847;SDS011;26570;50.962;5.340;2024-02-21T14:25:23;5.13;;;0.60;;
40847;SDS011;26570;50.962;5.340;2024-02-21T14:28:11;5.97;;;0.70;;
40847;SDS011;26570;50.962;5.340;2024-02-21T14:30:57;8.43;;;0.80;;
40847;SDS011;26570;50.962;5.340;2024-02-21T14:33:45;7.13;;;0.70;;
40847;SDS011;26570;50.962;5.340;2024-02-21T14:36:31;3.60;;;0.50;;
40847;SDS011;26570;50.962;5.340;2024-02-21T14:39:18;4.03;;;0.70;;
40847;SDS011;26570;50.962;5.340;2024-02-21T14:42:26;6.03;;;0.60;;
40847;SDS011;26570;50.962;5.340;2024-02-21T14:45:13;4.67;;;0.60;;
40847;SDS011;26570;50.962;5.340;2024-02-21T14:47:59;6.47;;;0.70;;
40847;SDS011;26570;50.962;5.340;2024-02-21T14:50:46;6.30;;;0.70;;
40847;SDS011;26570;50.962;5.340;2024-02-21T14:53:32;3.50;;;0.60;;
40847;SDS011;26570;50.962;5.340;2024-02-21T14:56:17;5.23;;;0.60;;
40847;SDS011;26570;50.962;5.340;2024-02-21T14:59:04;6.70;;;0.60;;
40847;SDS011;26570;50.962;5.340;2024-02-21T15:01:50;5.30;;;0.60;;
40847;SDS011;26570;50.962;5.340;2024-02-21T15:04:36;3.43;;;0.60;;
40847;SDS011;26570;50.962;5.340;2024-02-21T15:07:23;7.67;;;0.70;;
40847;SDS011;26570;50.962;5.340;2024-02-21T15:10:10;7.73;;;1.00;;
40847;SDS011;26570;50.962;5.340;2024-02-21T15:12:57;7.13;;;0.90;;
40847;SDS011;26570;50.962;5.340;2024-02-21T15:15:42;5.60;;;0.87;;
40847;SDS011;26570;50.962;5.340;2024-02-21T15:18:28;8.10;;;1.33;;
40847;SDS011;26570;50.962;5.340;2024-02-21T15:21:39;4.73;;;1.00;;
40847;SDS011;26570;50.962;5.340;2024-02-21T15:24:25;6.33;;;1.00;;
40847;SDS011;26570;50.962;5.340;2024-02-21T15:27:10;4.23;;;0.90;;
40847;SDS011;26570;50.962;5.340;2024-02-21T15:30:18;6.17;;;1.13;;
40847;SDS011;26570;50.962;5.340;2024-02-21T15:33:04;7.27;;;1.10;;
40847;SDS011;26570;50.962;5.340;2024-02-21T15:35:50;5.03;;;1.00;;
40847;SDS011;26570;50.962;5.340;2024-02-21T15:38:36;6.07;;;0.90;;
40847;SDS011;26570;50.962;5.340;2024-02-21T15:41:22;8.53;;;1.20;;
40847;SDS011;26570;50.962;5.340;2024-02-21T15:44:09;9.17;;;1.10;;
40847;SDS011;26570;50.962;5.340;2024-02-21T15:46:55;8.27;;;1.30;;
40847;SDS011;26570;50.962;5.340;2024-02-21T15:49:40;6.77;;;1.20;;
40847;SDS011;26570;50.962;5.340;2024-02-21T15:52:48;7.30;;;1.50;;
40847;SDS011;26570;50.962;5.340;2024-02-21T15:55:34;4.00;;;1.20;;
40847;SDS011;26570;50.962;5.340;2024-02-21T15:58:19;7.90;;;1.20;;
40847;SDS011;26570;50.962;5.340;2024-02-21T16:01:06;5.47;;;1.10;;
40847;SDS011;26570;50.962;5.340;2024-02-21T16:03:56;9.87;;;1.43;;
40847;SDS011;26570;50.962;5.340;2024-02-21T16:06:42;9.30;;;1.93;;
40847;SDS011;26570;50.962;5.340;2024-02-21T16:09:30;6.50;;;0.93;;
40847;SDS011;26570;50.962;5.340;2024-02-21T16:12:16;6.80;;;1.63;;
40847;SDS011;26570;50.962;5.340;2024-02-21T16:15:01;7.47;;;1.50;;
40847;SDS011;26570;50.962;5.340;2024-02-21T16:17:49;6.50;;;1.20;;
40847;SDS011;26570;50.962;5.340;2024-02-21T16:20:36;8.70;;;1.77;;
40847;SDS011;26570;50.962;5.340;2024-02-21T16:23:44;12.50;;;1.60;;
40847;SDS011;26570;50.962;5.340;2024-02-21T16:26:30;3.47;;;1.40;;
40847;SDS011;26570;50.962;5.340;2024-02-21T16:29:18;3.97;;;1.37;;
40847;SDS011;26570;50.962;5.340;2024-02-21T16:32:04;8.60;;;1.57;;
40847;SDS011;26570;50.962;5.340;2024-02-21T16:34:50;8.83;;;2.17;;
40847;SDS011;26570;50.962;5.340;2024-02-21T16:37:36;11.50;;;2.53;;
40847;SDS011;26570;50.962;5.340;2024-02-21T16:40:21;6.70;;;1.50;;
40847;SDS011;26570;50.962;5.340;2024-02-21T16:43:07;11.47;;;2.20;;
40847;SDS011;26570;50.962;5.340;2024-02-21T16:45:54;11.57;;;2.23;;
40847;SDS011;26570;50.962;5.340;2024-02-21T16:48:43;10.83;;;2.30;;
40847;SDS011;26570;50.962;5.340;2024-02-21T16:51:30;5.27;;;2.10;;
40847;SDS011;26570;50.962;5.340;2024-02-21T16:54:25;5.77;;;1.77;;
40847;SDS011;26570;50.962;5.340;2024-02-21T16:57:11;15.90;;;1.90;;
40847;SDS011;26570;50.962;5.340;2024-02-21T17:00:19;11.30;;;2.17;;
40847;SDS011;26570;50.962;5.340;2024-02-21T17:03:06;10.63;;;2.10;;
40847;SDS011;26570;50.962;5.340;2024-02-21T17:05:52;17.10;;;2.27;;
40847;SDS011;26570;50.962;5.340;2024-02-21T17:08:40;5.07;;;2.30;;
40847;SDS011;26570;50.962;5.340;2024-02-21T17:11:26;8.00;;;2.03;;
40847;SDS011;26570;50.962;5.340;2024-02-21T17:14:12;6.40;;;2.00;;
40847;SDS011;26570;50.962;5.340;2024-02-21T17:16:57;9.23;;;2.43;;
40847;SDS011;26570;50.962;5.340;2024-02-21T17:19:43;12.17;;;3.07;;
40847;SDS011;26570;50.962;5.340;2024-02-21T17:22:34;12.90;;;2.67;;
40847;SDS011;26570;50.962;5.340;2024-02-21T17:26:07;10.13;;;2.30;;
40847;SDS011;26570;50.962;5.340;2024-02-21T17:33:18;7.33;;;2.73;;
40847;SDS011;26570;50.962;5.340;2024-02-21T17:36:06;11.93;;;3.00;;
40847;SDS011;26570;50.962;5.340;2024-02-21T17:38:53;6.57;;;2.17;;
40847;SDS011;26570;50.962;5.340;2024-02-21T17:42:27;7.60;;;3.50;;
40847;SDS011;26570;50.962;5.340;2024-02-21T17:45:42;8.37;;;3.43;;
40847;SDS011;26570;50.962;5.340;2024-02-21T17:49:11;8.77;;;2.73;;
40847;SDS011;26570;50.962;5.340;2024-02-21T17:53:03;12.20;;;2.63;;
40847;SDS011;26570;50.962;5.340;2024-02-21T17:56:41;8.53;;;2.73;;
40847;SDS011;26570;50.962;5.340;2024-02-21T17:59:46;11.80;;;3.57;;
40847;SDS011;26570;50.962;5.340;2024-02-21T18:03:19;7.60;;;2.53;;
40847;SDS011;26570;50.962;5.340;2024-02-21T18:10:23;4.07;;;2.23;;
40847;SDS011;26570;50.962;5.340;2024-02-21T18:20:06;8.27;;;2.87;;
40847;SDS011;26570;50.962;5.340;2024-02-21T18:23:38;8.38;;;2.70;;
40847;SDS011;26570;50.962;5.340;2024-02-21T18:26:26;6.17;;;2.10;;
40847;SDS011;26570;50.962;5.340;2024-02-21T18:32:47;8.27;;;2.70;;
40847;SDS011;26570;50.962;5.340;2024-02-21T18:36:13;8.63;;;3.73;;
40847;SDS011;26570;50.962;5.340;2024-02-21T18:39:37;8.47;;;2.77;;
40847;SDS011;26570;50.962;5.340;2024-02-21T18:43:09;5.47;;;2.57;;
40847;SDS011;26570;50.962;5.340;2024-02-21T18:46:26;7.90;;;2.60;;
40847;SDS011;26570;50.962;5.340;2024-02-21T18:49:40;9.10;;;3.05;;
40847;SDS011;26570;50.962;5.340;2024-02-21T18:52:28;6.13;;;2.93;;
40847;SDS011;26570;50.962;5.340;2024-02-21T18:55:36;4.33;;;2.00;;
40847;SDS011;26570;50.962;5.340;2024-02-21T18:58:54;5.10;;;2.23;;
40847;SDS011;26570;50.962;5.340;2024-02-21T19:01:58;6.83;;;2.53;;
40847;SDS011;26570;50.962;5.340;2024-02-21T19:05:13;5.93;;;2.40;;
40847;SDS011;26570;50.962;5.340;2024-02-21T19:08:03;4.57;;;2.00;;
40847;SDS011;26570;50.962;5.340;2024-02-21T19:10:58;7.60;;;1.80;;
40847;SDS011;26570;50.962;5.340;2024-02-21T19:13:49;2.70;;;1.43;;
40847;SDS011;26570;50.962;5.340;2024-02-21T19:17:27;6.80;;;1.60;;
40847;SDS011;26570;50.962;5.340;2024-02-21T19:24:09;8.23;;;1.73;;
40847;SDS011;26570;50.962;5.340;2024-02-21T19:27:38;7.20;;;1.80;;
40847;SDS011;26570;50.962;5.340;2024-02-21T19:31:06;4.77;;;1.73;;
40847;SDS011;26570;50.962;5.340;2024-02-21T19:34:08;5.67;;;1.73;;
40847;SDS011;26570;50.962;5.340;2024-02-21T19:41:04;6.07;;;1.50;;
40847;SDS011;26570;50.962;5.340;2024-02-21T19:44:24;3.50;;;0.90;;
40847;SDS011;26570;50.962;5.340;2024-02-21T19:47:22;3.67;;;1.00;;
40847;SDS011;26570;50.962;5.340;2024-02-21T19:50:46;6.63;;;3.00;;
40847;SDS011;26570;50.962;5.340;2024-02-21T19:54:02;4.00;;;1.47;;
40847;SDS011;26570;50.962;5.340;2024-02-21T19:57:20;1.93;;;0.90;;
40847;SDS011;26570;50.962;5.340;2024-02-21T20:00:07;4.73;;;0.87;;
40847;SDS011;26570;50.962;5.340;2024-02-21T20:02:58;3.43;;;1.20;;
40847;SDS011;26570;50.962;5.340;2024-02-21T20:05:47;4.03;;;1.50;;
40847;SDS011;26570;50.962;5.340;2024-02-21T20:09:01;2.30;;;0.90;;
40847;SDS011;26570;50.962;5.340;2024-02-21T20:12:07;1.57;;;0.73;;
40847;SDS011;26570;50.962;5.340;2024-02-21T20:14:59;3.20;;;0.93;;
40847;SDS011;26570;50.962;5.340;2024-02-21T20:17:54;2.43;;;1.20;;
40847;SDS011;26570;50.962;5.340;2024-02-21T20:20:45;4.00;;;0.70;;
40847;SDS011;26570;50.962;5.340;2024-02-21T20:24:00;2.30;;;0.70;;
40847;SDS011;26570;50.962;5.340;2024-02-21T20:26:51;1.97;;;0.80;;
40847;SDS011;26570;50.962;5.340;2024-02-21T20:29:40;1.63;;;0.70;;
40847;SDS011;26570;50.962;5.340;2024-02-21T20:32:52;1.80;;;0.80;;
40847;SDS011;26570;50.962;5.340;2024-02-21T20:35:39;1.63;;;0.60;;
40847;SDS011;26570;50.962;5.340;2024-02-21T20:38:34;1.60;;;0.60;;
40847;SDS011;26570;50.962;5.340;2024-02-21T20:41:23;2.30;;;0.70;;
40847;SDS011;26570;50.962;5.340;2024-02-21T20:44:44;3.00;;;1.30;;
40847;SDS011;26570;50.962;5.340;2024-02-21T20:47:34;1.67;;;0.63;;
40847;SDS011;26570;50.962;5.340;2024-02-21T20:50:26;0.90;;;0.50;;
40847;SDS011;26570;50.962;5.340;2024-02-21T20:53:15;1.67;;;0.57;;
40847;SDS011;26570;50.962;5.340;2024-02-21T20:56:03;1.07;;;0.50;;
40847;SDS011;26570;50.962;5.340;2024-02-21T20:59:10;2.33;;;0.50;;
40847;SDS011;26570;50.962;5.340;2024-02-21T21:01:58;1.53;;;0.50;;
40847;SDS011;26570;50.962;5.340;2024-02-21T21:04:49;1.17;;;0.47;;
40847;SDS011;26570;50.962;5.340;2024-02-21T21:07:36;1.90;;;0.40;;
40847;SDS011;26570;50.962;5.340;2024-02-21T21:10:27;2.20;;;0.40;;
40847;SDS011;26570;50.962;5.340;2024-02-21T21:13:38;2.50;;;0.50;;
40847;SDS011;26570;50.962;5.340;2024-02-21T21:16:23;1.37;;;0.30;;
40847;SDS011;26570;50.962;5.340;2024-02-21T21:19:09;2.77;;;0.30;;
40847;SDS011;26570;50.962;5.340;2024-02-21T21:21:55;0.83;;;0.37;;
40847;SDS011;26570;50.962;5.340;2024-02-21T21:24:53;0.83;;;0.30;;
40847;SDS011;26570;50.962;5.340;2024-02-21T21:27:44;0.73;;;0.30;;
40847;SDS011;26570;50.962;5.340;2024-02-21T21:30:33;0.70;;;0.30;;
40847;SDS011;26570;50.962;5.340;2024-02-21T21:33:25;0.60;;;0.30;;
40847;SDS011;26570;50.962;5.340;2024-02-21T21:36:43;0.80;;;0.30;;
40847;SDS011;26570;50.962;5.340;2024-02-21T21:39:33;1.73;;;0.30;;
40847;SDS011;26570;50.962;5.340;2024-02-21T21:42:55;1.00;;;0.30;;
40847;SDS011;26570;50.962;5.340;2024-02-21T21:45:46;0.70;;;0.30;;
40847;SDS011;26570;50.962;5.340;2024-02-21T21:48:35;0.70;;;0.27;;
40847;SDS011;26570;50.962;5.340;2024-02-21T21:51:29;0.80;;;0.30;;
40847;SDS011;26570;50.962;5.340;2024-02-21T21:54:21;0.70;;;0.30;;
40847;SDS011;26570;50.962;5.340;2024-02-21T21:57:50;1.53;;;0.40;;